sensor_id;sensor_type;location;lat;lon;timestamp;P1;durP1;ratioP1;P2;durP2;ratioP2
23418;SDS011;11882;42.522;27.458;2022-12-16T00:00:37;40.77;;;27.03;;
23418;SDS011;11882;42.522;27.458;2022-12-16T00:03:05;37.73;;;25.50;;
23418;SDS011;11882;42.522;27.458;2022-12-16T00:05:32;35.93;;;24.83;;
23418;SDS011;11882;42.522;27.458;2022-12-16T00:08:03;36.57;;;21.93;;
23418;SDS011;11882;42.522;27.458;2022-12-16T00:10:30;33.50;;;21.53;;
23418;SDS011;11882;42.522;27.458;2022-12-16T00:13:17;35.37;;;22.40;;
23418;SDS011;11882;42.522;27.458;2022-12-16T00:15:46;32.03;;;20.70;;
23418;SDS011;11882;42.522;27.458;2022-12-16T00:18:13;25.47;;;17.63;;
23418;SDS011;11882;42.522;27.458;2022-12-16T00:20:43;29.70;;;19.77;;
23418;SDS011;11882;42.522;27.458;2022-12-16T00:23:12;22.30;;;15.87;;
23418;SDS011;11882;42.522;27.458;2022-12-16T00:25:40;28.90;;;19.13;;
23418;SDS011;11882;42.522;27.458;2022-12-16T00:28:07;23.70;;;16.10;;
23418;SDS011;11882;42.522;27.458;2022-12-16T00:30:34;20.30;;;14.23;;
23418;SDS011;11882;42.522;27.458;2022-12-16T00:33:03;19.97;;;14.70;;
23418;SDS011;11882;42.522;27.458;2022-12-16T00:35:30;26.60;;;18.03;;
23418;SDS011;11882;42.522;27.458;2022-12-16T00:37:59;24.30;;;15.43;;
23418;SDS011;11882;42.522;27.458;2022-12-16T00:40:28;27.10;;;17.80;;
23418;SDS011;11882;42.522;27.458;2022-12-16T00:42:54;30.40;;;20.33;;
23418;SDS011;11882;42.522;27.458;2022-12-16T00:45:21;30.50;;;20.93;;
23418;SDS011;11882;42.522;27.458;2022-12-16T00:47:48;30.30;;;21.73;;
23418;SDS011;11882;42.522;27.458;2022-12-16T00:50:15;34.97;;;23.20;;
23418;SDS011;11882;42.522;27.458;2022-12-16T00:52:42;35.70;;;23.87;;
23418;SDS011;11882;42.522;27.458;2022-12-16T00:55:09;34.60;;;23.83;;
23418;SDS011;11882;42.522;27.458;2022-12-16T00:57:38;35.67;;;24.60;;
23418;SDS011;11882;42.522;27.458;2022-12-16T01:00:06;37.50;;;26.40;;
23418;SDS011;11882;42.522;27.458;2022-12-16T01:02:33;37.80;;;26.10;;
23418;SDS011;11882;42.522;27.458;2022-12-16T01:05:00;42.13;;;26.57;;
23418;SDS011;11882;42.522;27.458;2022-12-16T01:07:29;40.43;;;25.97;;
23418;SDS011;11882;42.522;27.458;2022-12-16T01:09:56;43.00;;;27.00;;
23418;SDS011;11882;42.522;27.458;2022-12-16T01:12:23;40.57;;;25.53;;
23418;SDS011;11882;42.522;27.458;2022-12-16T01:14:51;39.10;;;25.47;;
23418;SDS011;11882;42.522;27.458;2022-12-16T01:17:18;40.37;;;27.43;;
23418;SDS011;11882;42.522;27.458;2022-12-16T01:19:45;41.20;;;25.87;;
23418;SDS011;11882;42.522;27.458;2022-12-16T01:22:12;39.97;;;25.97;;
23418;SDS011;11882;42.522;27.458;2022-12-16T01:24:39;37.40;;;26.07;;
23418;SDS011;11882;42.522;27.458;2022-12-16T01:27:06;34.30;;;24.30;;
23418;SDS011;11882;42.522;27.458;2022-12-16T01:29:32;33.67;;;22.37;;
23418;SDS011;11882;42.522;27.458;2022-12-16T01:32:01;36.47;;;22.83;;
23418;SDS011;11882;42.522;27.458;2022-12-16T01:34:28;32.33;;;22.73;;
23418;SDS011;11882;42.522;27.458;2022-12-16T01:36:55;36.33;;;23.90;;
23418;SDS011;11882;42.522;27.458;2022-12-16T01:39:21;37.63;;;23.37;;
23418;SDS011;11882;42.522;27.458;2022-12-16T01:41:49;33.67;;;23.07;;
23418;SDS011;11882;42.522;27.458;2022-12-16T01:44:17;32.77;;;22.93;;
23418;SDS011;11882;42.522;27.458;2022-12-16T01:46:44;33.87;;;21.93;;
23418;SDS011;11882;42.522;27.458;2022-12-16T01:49:18;36.03;;;24.50;;
23418;SDS011;11882;42.522;27.458;2022-12-16T01:51:47;38.50;;;23.97;;
23418;SDS011;11882;42.522;27.458;2022-12-16T01:54:16;32.90;;;23.37;;
23418;SDS011;11882;42.522;27.458;2022-12-16T01:56:44;38.07;;;24.53;;
23418;SDS011;11882;42.522;27.458;2022-12-16T01:59:14;36.83;;;23.93;;
23418;SDS011;11882;42.522;27.458;2022-12-16T02:01:42;34.97;;;23.57;;
23418;SDS011;11882;42.522;27.458;2022-12-16T02:04:08;35.63;;;24.17;;
23418;SDS011;11882;42.522;27.458;2022-12-16T02:06:37;38.90;;;24.93;;
23418;SDS011;11882;42.522;27.458;2022-12-16T02:09:05;40.53;;;25.83;;
23418;SDS011;11882;42.522;27.458;2022-12-16T02:11:40;39.63;;;26.40;;
23418;SDS011;11882;42.522;27.458;2022-12-16T02:14:13;44.37;;;25.87;;
23418;SDS011;11882;42.522;27.458;2022-12-16T02:16:44;37.30;;;25.57;;
23418;SDS011;11882;42.522;27.458;2022-12-16T02:19:19;39.97;;;26.00;;
23418;SDS011;11882;42.522;27.458;2022-12-16T02:21:54;39.20;;;25.10;;
23418;SDS011;11882;42.522;27.458;2022-12-16T02:24:34;36.30;;;24.70;;
23418;SDS011;11882;42.522;27.458;2022-12-16T02:30:05;39.70;;;24.40;;
23418;SDS011;11882;42.522;27.458;2022-12-16T02:32:36;38.60;;;25.17;;
23418;SDS011;11882;42.522;27.458;2022-12-16T02:35:06;38.37;;;24.27;;
23418;SDS011;11882;42.522;27.458;2022-12-16T02:37:36;44.43;;;26.90;;
23418;SDS011;11882;42.522;27.458;2022-12-16T02:40:06;41.53;;;26.03;;
23418;SDS011;11882;42.522;27.458;2022-12-16T02:42:37;41.63;;;26.03;;
23418;SDS011;11882;42.522;27.458;2022-12-16T02:45:05;40.17;;;26.23;;
23418;SDS011;11882;42.522;27.458;2022-12-16T02:47:36;39.70;;;25.60;;
23418;SDS011;11882;42.522;27.458;2022-12-16T02:50:04;39.57;;;25.30;;
23418;SDS011;11882;42.522;27.458;2022-12-16T02:52:31;35.03;;;24.50;;
23418;SDS011;11882;42.522;27.458;2022-12-16T02:55:00;37.83;;;24.80;;
23418;SDS011;11882;42.522;27.458;2022-12-16T02:57:33;35.20;;;24.27;;
23418;SDS011;11882;42.522;27.458;2022-12-16T03:00:03;35.50;;;23.80;;
23418;SDS011;11882;42.522;27.458;2022-12-16T03:02:33;38.50;;;24.20;;
23418;SDS011;11882;42.522;27.458;2022-12-16T03:05:04;39.13;;;24.67;;
23418;SDS011;11882;42.522;27.458;2022-12-16T03:07:32;36.13;;;24.27;;
23418;SDS011;11882;42.522;27.458;2022-12-16T03:10:00;38.17;;;24.30;;
23418;SDS011;11882;42.522;27.458;2022-12-16T03:12:29;41.00;;;24.30;;
23418;SDS011;11882;42.522;27.458;2022-12-16T03:15:01;37.33;;;23.80;;
23418;SDS011;11882;42.522;27.458;2022-12-16T03:17:28;37.53;;;24.37;;
23418;SDS011;11882;42.522;27.458;2022-12-16T03:19:56;34.93;;;23.87;;
23418;SDS011;11882;42.522;27.458;2022-12-16T03:22:28;37.40;;;23.60;;
23418;SDS011;11882;42.522;27.458;2022-12-16T03:24:58;41.57;;;25.47;;
23418;SDS011;11882;42.522;27.458;2022-12-16T03:27:29;36.27;;;26.47;;
23418;SDS011;11882;42.522;27.458;2022-12-16T03:29:58;38.77;;;26.10;;
23418;SDS011;11882;42.522;27.458;2022-12-16T03:32:28;37.63;;;25.03;;
23418;SDS011;11882;42.522;27.458;2022-12-16T03:35:00;35.00;;;23.80;;
23418;SDS011;11882;42.522;27.458;2022-12-16T03:37:30;37.23;;;24.27;;
23418;SDS011;11882;42.522;27.458;2022-12-16T03:39:59;38.63;;;24.47;;
23418;SDS011;11882;42.522;27.458;2022-12-16T03:42:26;36.97;;;25.70;;
23418;SDS011;11882;42.522;27.458;2022-12-16T03:44:53;36.80;;;24.97;;
23418;SDS011;11882;42.522;27.458;2022-12-16T03:47:20;37.87;;;24.77;;
23418;SDS011;11882;42.522;27.458;2022-12-16T03:49:47;41.63;;;27.03;;
23418;SDS011;11882;42.522;27.458;2022-12-16T03:52:14;38.93;;;25.83;;
23418;SDS011;11882;42.522;27.458;2022-12-16T03:54:42;36.87;;;24.37;;
23418;SDS011;11882;42.522;27.458;2022-12-16T03:57:09;39.77;;;25.13;;
23418;SDS011;11882;42.522;27.458;2022-12-16T03:59:36;36.73;;;24.50;;
23418;SDS011;11882;42.522;27.458;2022-12-16T04:02:03;37.80;;;25.27;;
23418;SDS011;11882;42.522;27.458;2022-12-16T04:04:32;37.93;;;24.33;;
23418;SDS011;11882;42.522;27.458;2022-12-16T04:06:59;39.37;;;24.43;;
23418;SDS011;11882;42.522;27.458;2022-12-16T04:09:44;39.60;;;25.13;;
23418;SDS011;11882;42.522;27.458;2022-12-16T04:12:11;40.43;;;25.87;;
23418;SDS011;11882;42.522;27.458;2022-12-16T04:14:58;38.57;;;26.50;;
23418;SDS011;11882;42.522;27.458;2022-12-16T04:17:56;39.20;;;25.93;;
23418;SDS011;11882;42.522;27.458;2022-12-16T04:20:41;37.43;;;25.23;;
23418;SDS011;11882;42.522;27.458;2022-12-16T04:23:27;36.07;;;24.60;;
23418;SDS011;11882;42.522;27.458;2022-12-16T04:26:14;37.27;;;25.03;;
23418;SDS011;11882;42.522;27.458;2022-12-16T04:28:41;35.53;;;24.80;;
23418;SDS011;11882;42.522;27.458;2022-12-16T04:31:08;36.13;;;24.30;;
23418;SDS011;11882;42.522;27.458;2022-12-16T04:33:35;38.77;;;24.53;;
23418;SDS011;11882;42.522;27.458;2022-12-16T04:36:19;37.50;;;24.97;;
23418;SDS011;11882;42.522;27.458;2022-12-16T04:39:03;34.43;;;23.20;;
23418;SDS011;11882;42.522;27.458;2022-12-16T04:41:51;43.60;;;25.73;;
23418;SDS011;11882;42.522;27.458;2022-12-16T04:44:36;37.30;;;25.40;;
23418;SDS011;11882;42.522;27.458;2022-12-16T04:47:20;37.17;;;25.27;;
23418;SDS011;11882;42.522;27.458;2022-12-16T04:50:04;42.43;;;26.50;;
23418;SDS011;11882;42.522;27.458;2022-12-16T04:52:49;38.23;;;25.47;;
23418;SDS011;11882;42.522;27.458;2022-12-16T04:55:47;41.87;;;25.30;;
23418;SDS011;11882;42.522;27.458;2022-12-16T04:58:33;38.97;;;24.30;;
23418;SDS011;11882;42.522;27.458;2022-12-16T05:01:17;39.97;;;24.33;;
23418;SDS011;11882;42.522;27.458;2022-12-16T05:04:01;39.77;;;24.87;;
23418;SDS011;11882;42.522;27.458;2022-12-16T05:06:45;38.13;;;23.93;;
23418;SDS011;11882;42.522;27.458;2022-12-16T05:09:29;39.13;;;24.30;;
23418;SDS011;11882;42.522;27.458;2022-12-16T05:12:13;38.20;;;24.40;;
23418;SDS011;11882;42.522;27.458;2022-12-16T05:14:58;40.33;;;23.87;;
23418;SDS011;11882;42.522;27.458;2022-12-16T05:17:42;40.53;;;24.77;;
23418;SDS011;11882;42.522;27.458;2022-12-16T05:20:26;37.87;;;24.87;;
23418;SDS011;11882;42.522;27.458;2022-12-16T05:23:10;44.03;;;27.87;;
23418;SDS011;11882;42.522;27.458;2022-12-16T05:25:55;44.40;;;27.23;;
23418;SDS011;11882;42.522;27.458;2022-12-16T05:28:42;43.03;;;27.10;;
23418;SDS011;11882;42.522;27.458;2022-12-16T05:31:27;41.37;;;26.83;;
23418;SDS011;11882;42.522;27.458;2022-12-16T05:34:14;45.63;;;26.23;;
23418;SDS011;11882;42.522;27.458;2022-12-16T05:36:58;45.27;;;25.80;;
23418;SDS011;11882;42.522;27.458;2022-12-16T05:39:42;41.00;;;25.03;;
23418;SDS011;11882;42.522;27.458;2022-12-16T05:42:26;39.07;;;25.13;;
23418;SDS011;11882;42.522;27.458;2022-12-16T05:45:10;38.77;;;27.57;;
23418;SDS011;11882;42.522;27.458;2022-12-16T05:47:57;38.90;;;25.37;;
23418;SDS011;11882;42.522;27.458;2022-12-16T05:50:42;42.17;;;26.03;;
23418;SDS011;11882;42.522;27.458;2022-12-16T05:53:25;39.47;;;25.30;;
23418;SDS011;11882;42.522;27.458;2022-12-16T05:56:09;41.37;;;26.17;;
23418;SDS011;11882;42.522;27.458;2022-12-16T05:58:53;42.93;;;25.87;;
23418;SDS011;11882;42.522;27.458;2022-12-16T06:01:37;45.77;;;29.10;;
23418;SDS011;11882;42.522;27.458;2022-12-16T06:04:23;46.93;;;28.80;;
23418;SDS011;11882;42.522;27.458;2022-12-16T06:07:07;45.83;;;28.63;;
23418;SDS011;11882;42.522;27.458;2022-12-16T06:09:51;45.37;;;28.53;;
23418;SDS011;11882;42.522;27.458;2022-12-16T06:12:35;46.90;;;30.27;;
23418;SDS011;11882;42.522;27.458;2022-12-16T06:15:19;52.70;;;32.77;;
23418;SDS011;11882;42.522;27.458;2022-12-16T06:18:08;46.23;;;30.23;;
23418;SDS011;11882;42.522;27.458;2022-12-16T06:20:54;48.23;;;30.47;;
23418;SDS011;11882;42.522;27.458;2022-12-16T06:23:38;47.03;;;30.47;;
23418;SDS011;11882;42.522;27.458;2022-12-16T06:26:22;44.20;;;29.87;;
23418;SDS011;11882;42.522;27.458;2022-12-16T06:29:07;42.70;;;28.07;;
23418;SDS011;11882;42.522;27.458;2022-12-16T06:31:51;45.90;;;28.70;;
23418;SDS011;11882;42.522;27.458;2022-12-16T06:34:31;45.63;;;27.53;;
23418;SDS011;11882;42.522;27.458;2022-12-16T06:37:17;45.97;;;31.03;;
23418;SDS011;11882;42.522;27.458;2022-12-16T06:40:01;51.47;;;35.07;;
23418;SDS011;11882;42.522;27.458;2022-12-16T06:42:57;54.93;;;34.93;;
23418;SDS011;11882;42.522;27.458;2022-12-16T06:45:41;60.07;;;40.27;;
23418;SDS011;11882;42.522;27.458;2022-12-16T06:48:24;50.67;;;35.80;;
23418;SDS011;11882;42.522;27.458;2022-12-16T06:51:08;53.13;;;35.10;;
23418;SDS011;11882;42.522;27.458;2022-12-16T06:53:54;54.10;;;31.80;;
23418;SDS011;11882;42.522;27.458;2022-12-16T06:56:38;48.80;;;30.90;;
23418;SDS011;11882;42.522;27.458;2022-12-16T06:59:22;51.30;;;30.53;;
23418;SDS011;11882;42.522;27.458;2022-12-16T07:02:07;47.30;;;31.30;;
23418;SDS011;11882;42.522;27.458;2022-12-16T07:04:51;47.67;;;33.47;;
23418;SDS011;11882;42.522;27.458;2022-12-16T07:07:35;53.67;;;36.50;;
23418;SDS011;11882;42.522;27.458;2022-12-16T07:10:21;54.00;;;37.90;;
23418;SDS011;11882;42.522;27.458;2022-12-16T07:13:05;59.37;;;38.07;;
23418;SDS011;11882;42.522;27.458;2022-12-16T07:15:49;61.57;;;38.90;;
23418;SDS011;11882;42.522;27.458;2022-12-16T07:18:33;61.13;;;37.40;;
23418;SDS011;11882;42.522;27.458;2022-12-16T07:21:19;64.23;;;37.37;;
23418;SDS011;11882;42.522;27.458;2022-12-16T07:24:04;59.80;;;34.33;;
23418;SDS011;11882;42.522;27.458;2022-12-16T07:26:49;61.37;;;34.00;;
23418;SDS011;11882;42.522;27.458;2022-12-16T07:29:33;61.07;;;35.23;;
23418;SDS011;11882;42.522;27.458;2022-12-16T07:32:17;61.83;;;33.93;;
23418;SDS011;11882;42.522;27.458;2022-12-16T07:35:01;54.57;;;30.50;;
23418;SDS011;11882;42.522;27.458;2022-12-16T07:37:45;57.30;;;31.90;;
23418;SDS011;11882;42.522;27.458;2022-12-16T07:40:31;65.33;;;31.77;;
23418;SDS011;11882;42.522;27.458;2022-12-16T07:43:17;61.67;;;33.90;;
23418;SDS011;11882;42.522;27.458;2022-12-16T07:46:01;61.80;;;37.47;;
23418;SDS011;11882;42.522;27.458;2022-12-16T07:48:45;65.50;;;37.83;;
23418;SDS011;11882;42.522;27.458;2022-12-16T07:51:29;63.03;;;33.53;;
23418;SDS011;11882;42.522;27.458;2022-12-16T07:54:15;55.07;;;32.20;;
23418;SDS011;11882;42.522;27.458;2022-12-16T07:57:00;51.60;;;30.00;;
23418;SDS011;11882;42.522;27.458;2022-12-16T07:59:45;53.23;;;29.97;;
23418;SDS011;11882;42.522;27.458;2022-12-16T08:02:29;55.03;;;30.60;;
23418;SDS011;11882;42.522;27.458;2022-12-16T08:05:13;55.07;;;31.40;;
23418;SDS011;11882;42.522;27.458;2022-12-16T08:07:57;55.20;;;30.23;;
23418;SDS011;11882;42.522;27.458;2022-12-16T08:10:41;48.83;;;27.40;;
23418;SDS011;11882;42.522;27.458;2022-12-16T08:13:25;47.13;;;27.63;;
23418;SDS011;11882;42.522;27.458;2022-12-16T08:16:10;55.90;;;27.57;;
23418;SDS011;11882;42.522;27.458;2022-12-16T08:18:54;51.37;;;29.80;;
23418;SDS011;11882;42.522;27.458;2022-12-16T08:21:37;52.57;;;29.60;;
23418;SDS011;11882;42.522;27.458;2022-12-16T08:24:22;52.97;;;30.80;;
23418;SDS011;11882;42.522;27.458;2022-12-16T08:27:05;58.33;;;30.33;;
23418;SDS011;11882;42.522;27.458;2022-12-16T08:29:49;51.70;;;29.63;;
23418;SDS011;11882;42.522;27.458;2022-12-16T08:32:35;57.27;;;29.13;;
23418;SDS011;11882;42.522;27.458;2022-12-16T08:35:22;55.03;;;28.67;;
23418;SDS011;11882;42.522;27.458;2022-12-16T08:38:14;57.00;;;28.93;;
23418;SDS011;11882;42.522;27.458;2022-12-16T08:40:58;64.50;;;31.03;;
23418;SDS011;11882;42.522;27.458;2022-12-16T08:43:42;65.47;;;31.57;;
23418;SDS011;11882;42.522;27.458;2022-12-16T08:46:26;66.37;;;31.77;;
23418;SDS011;11882;42.522;27.458;2022-12-16T08:49:12;65.13;;;32.83;;
23418;SDS011;11882;42.522;27.458;2022-12-16T08:51:56;58.90;;;32.03;;
23418;SDS011;11882;42.522;27.458;2022-12-16T08:54:36;55.40;;;29.13;;
23418;SDS011;11882;42.522;27.458;2022-12-16T08:57:20;54.30;;;28.03;;
23418;SDS011;11882;42.522;27.458;2022-12-16T09:00:05;59.60;;;28.40;;
23418;SDS011;11882;42.522;27.458;2022-12-16T09:02:53;60.27;;;30.17;;
23418;SDS011;11882;42.522;27.458;2022-12-16T09:05:57;48.80;;;30.13;;
23418;SDS011;11882;42.522;27.458;2022-12-16T09:08:43;57.80;;;29.73;;
23418;SDS011;11882;42.522;27.458;2022-12-16T09:11:27;56.43;;;28.87;;
23418;SDS011;11882;42.522;27.458;2022-12-16T09:14:12;56.43;;;30.50;;
23418;SDS011;11882;42.522;27.458;2022-12-16T09:16:56;59.40;;;29.57;;
23418;SDS011;11882;42.522;27.458;2022-12-16T09:19:45;55.80;;;27.57;;
23418;SDS011;11882;42.522;27.458;2022-12-16T09:22:30;54.97;;;29.40;;
23418;SDS011;11882;42.522;27.458;2022-12-16T09:25:15;56.63;;;29.30;;
23418;SDS011;11882;42.522;27.458;2022-12-16T09:28:00;58.87;;;30.80;;
23418;SDS011;11882;42.522;27.458;2022-12-16T09:30:44;62.80;;;30.87;;
23418;SDS011;11882;42.522;27.458;2022-12-16T09:33:28;52.63;;;30.87;;
23418;SDS011;11882;42.522;27.458;2022-12-16T09:36:12;58.17;;;30.00;;
23418;SDS011;11882;42.522;27.458;2022-12-16T09:38:58;64.17;;;33.53;;
23418;SDS011;11882;42.522;27.458;2022-12-16T09:41:43;59.63;;;31.93;;
23418;SDS011;11882;42.522;27.458;2022-12-16T09:44:25;66.60;;;34.77;;
23418;SDS011;11882;42.522;27.458;2022-12-16T09:47:17;64.50;;;32.37;;
23418;SDS011;11882;42.522;27.458;2022-12-16T09:50:02;67.50;;;34.93;;
23418;SDS011;11882;42.522;27.458;2022-12-16T09:52:47;64.83;;;35.30;;
23418;SDS011;11882;42.522;27.458;2022-12-16T09:55:35;62.00;;;35.77;;
23418;SDS011;11882;42.522;27.458;2022-12-16T09:58:20;61.17;;;36.93;;
23418;SDS011;11882;42.522;27.458;2022-12-16T10:01:06;71.40;;;38.17;;
23418;SDS011;11882;42.522;27.458;2022-12-16T10:03:52;65.40;;;36.67;;
23418;SDS011;11882;42.522;27.458;2022-12-16T10:06:39;59.50;;;33.87;;
23418;SDS011;11882;42.522;27.458;2022-12-16T10:09:26;55.20;;;33.90;;
23418;SDS011;11882;42.522;27.458;2022-12-16T10:12:15;63.27;;;36.30;;
23418;SDS011;11882;42.522;27.458;2022-12-16T10:15:02;59.40;;;39.00;;
23418;SDS011;11882;42.522;27.458;2022-12-16T10:17:51;66.13;;;38.93;;
23418;SDS011;11882;42.522;27.458;2022-12-16T10:20:37;62.13;;;35.97;;
23418;SDS011;11882;42.522;27.458;2022-12-16T10:23:27;59.30;;;32.97;;
23418;SDS011;11882;42.522;27.458;2022-12-16T10:26:13;61.77;;;34.83;;
23418;SDS011;11882;42.522;27.458;2022-12-16T10:29:02;58.40;;;35.00;;
23418;SDS011;11882;42.522;27.458;2022-12-16T10:31:47;62.33;;;34.47;;
23418;SDS011;11882;42.522;27.458;2022-12-16T10:34:32;62.37;;;33.33;;
23418;SDS011;11882;42.522;27.458;2022-12-16T10:37:19;53.57;;;31.93;;
23418;SDS011;11882;42.522;27.458;2022-12-16T10:40:05;54.97;;;30.43;;
23418;SDS011;11882;42.522;27.458;2022-12-16T10:42:50;55.20;;;31.67;;
23418;SDS011;11882;42.522;27.458;2022-12-16T10:45:39;51.17;;;28.93;;
23418;SDS011;11882;42.522;27.458;2022-12-16T10:48:25;54.27;;;29.67;;
23418;SDS011;11882;42.522;27.458;2022-12-16T10:51:11;50.40;;;28.23;;
23418;SDS011;11882;42.522;27.458;2022-12-16T10:53:55;48.57;;;28.53;;
23418;SDS011;11882;42.522;27.458;2022-12-16T10:56:46;52.90;;;28.10;;
23418;SDS011;11882;42.522;27.458;2022-12-16T10:59:33;53.53;;;28.87;;
23418;SDS011;11882;42.522;27.458;2022-12-16T11:02:20;51.60;;;29.00;;
23418;SDS011;11882;42.522;27.458;2022-12-16T11:05:20;51.40;;;29.73;;
23418;SDS011;11882;42.522;27.458;2022-12-16T11:08:08;55.17;;;30.17;;
23418;SDS011;11882;42.522;27.458;2022-12-16T11:11:10;51.47;;;27.77;;
23418;SDS011;11882;42.522;27.458;2022-12-16T11:13:56;53.00;;;27.37;;
23418;SDS011;11882;42.522;27.458;2022-12-16T11:16:59;48.23;;;27.17;;
23418;SDS011;11882;42.522;27.458;2022-12-16T11:20:03;49.53;;;26.30;;
23418;SDS011;11882;42.522;27.458;2022-12-16T11:22:48;50.50;;;26.73;;
23418;SDS011;11882;42.522;27.458;2022-12-16T11:26:01;48.33;;;26.40;;
23418;SDS011;11882;42.522;27.458;2022-12-16T11:28:45;50.00;;;28.00;;
23418;SDS011;11882;42.522;27.458;2022-12-16T11:31:46;48.80;;;26.97;;
23418;SDS011;11882;42.522;27.458;2022-12-16T11:34:31;46.53;;;26.77;;
23418;SDS011;11882;42.522;27.458;2022-12-16T11:37:17;50.33;;;27.10;;
23418;SDS011;11882;42.522;27.458;2022-12-16T11:40:01;48.93;;;25.50;;
23418;SDS011;11882;42.522;27.458;2022-12-16T11:42:48;42.90;;;26.23;;
23418;SDS011;11882;42.522;27.458;2022-12-16T11:45:33;46.37;;;24.97;;
23418;SDS011;11882;42.522;27.458;2022-12-16T11:48:20;44.63;;;24.73;;
23418;SDS011;11882;42.522;27.458;2022-12-16T11:51:05;37.27;;;19.30;;
23418;SDS011;11882;42.522;27.458;2022-12-16T11:53:57;29.47;;;17.07;;
23418;SDS011;11882;42.522;27.458;2022-12-16T11:56:43;29.73;;;17.30;;
23418;SDS011;11882;42.522;27.458;2022-12-16T11:59:30;35.33;;;19.73;;
23418;SDS011;11882;42.522;27.458;2022-12-16T12:02:17;34.33;;;19.73;;
23418;SDS011;11882;42.522;27.458;2022-12-16T12:05:01;41.50;;;23.40;;
23418;SDS011;11882;42.522;27.458;2022-12-16T12:07:47;43.33;;;21.83;;
23418;SDS011;11882;42.522;27.458;2022-12-16T12:10:41;33.13;;;21.70;;
23418;SDS011;11882;42.522;27.458;2022-12-16T12:13:38;40.57;;;22.20;;
23418;SDS011;11882;42.522;27.458;2022-12-16T12:16:26;30.87;;;17.30;;
23418;SDS011;11882;42.522;27.458;2022-12-16T12:19:12;24.23;;;15.10;;
23418;SDS011;11882;42.522;27.458;2022-12-16T12:22:00;41.13;;;20.80;;
23418;SDS011;11882;42.522;27.458;2022-12-16T12:24:46;37.93;;;20.80;;
23418;SDS011;11882;42.522;27.458;2022-12-16T12:27:37;42.93;;;21.67;;
23418;SDS011;11882;42.522;27.458;2022-12-16T12:30:27;40.43;;;22.10;;
23418;SDS011;11882;42.522;27.458;2022-12-16T12:33:20;39.67;;;19.87;;
23418;SDS011;11882;42.522;27.458;2022-12-16T12:36:07;38.03;;;22.53;;
23418;SDS011;11882;42.522;27.458;2022-12-16T12:38:58;41.67;;;24.60;;
23418;SDS011;11882;42.522;27.458;2022-12-16T12:41:53;35.17;;;22.40;;
23418;SDS011;11882;42.522;27.458;2022-12-16T12:44:44;34.70;;;20.30;;
23418;SDS011;11882;42.522;27.458;2022-12-16T12:47:30;28.67;;;18.57;;
23418;SDS011;11882;42.522;27.458;2022-12-16T12:50:16;29.00;;;18.03;;
23418;SDS011;11882;42.522;27.458;2022-12-16T12:53:06;30.77;;;18.30;;
23418;SDS011;11882;42.522;27.458;2022-12-16T12:55:59;32.30;;;18.23;;
23418;SDS011;11882;42.522;27.458;2022-12-16T12:58:47;29.40;;;18.40;;
23418;SDS011;11882;42.522;27.458;2022-12-16T13:01:34;31.13;;;16.33;;
23418;SDS011;11882;42.522;27.458;2022-12-16T13:04:22;28.40;;;18.37;;
23418;SDS011;11882;42.522;27.458;2022-12-16T13:07:09;38.30;;;24.77;;
23418;SDS011;11882;42.522;27.458;2022-12-16T13:13:24;37.93;;;26.20;;
23418;SDS011;11882;42.522;27.458;2022-12-16T13:16:11;32.90;;;22.97;;
23418;SDS011;11882;42.522;27.458;2022-12-16T13:21:56;30.80;;;20.03;;
23418;SDS011;11882;42.522;27.458;2022-12-16T13:24:44;27.27;;;16.33;;
23418;SDS011;11882;42.522;27.458;2022-12-16T13:27:46;27.53;;;15.40;;
23418;SDS011;11882;42.522;27.458;2022-12-16T13:30:32;26.10;;;15.97;;
23418;SDS011;11882;42.522;27.458;2022-12-16T13:33:24;24.17;;;15.07;;
23418;SDS011;11882;42.522;27.458;2022-12-16T13:36:09;29.03;;;14.30;;
23418;SDS011;11882;42.522;27.458;2022-12-16T13:38:55;25.60;;;15.47;;
23418;SDS011;11882;42.522;27.458;2022-12-16T13:41:47;30.43;;;17.20;;
23418;SDS011;11882;42.522;27.458;2022-12-16T13:47:31;24.97;;;15.03;;
23418;SDS011;11882;42.522;27.458;2022-12-16T13:50:33;32.77;;;16.10;;
23418;SDS011;11882;42.522;27.458;2022-12-16T13:53:17;29.13;;;16.43;;
23418;SDS011;11882;42.522;27.458;2022-12-16T13:56:04;27.00;;;16.10;;
23418;SDS011;11882;42.522;27.458;2022-12-16T13:58:50;31.93;;;16.10;;
23418;SDS011;11882;42.522;27.458;2022-12-16T14:01:35;27.20;;;16.90;;
23418;SDS011;11882;42.522;27.458;2022-12-16T14:04:22;28.47;;;16.43;;
23418;SDS011;11882;42.522;27.458;2022-12-16T14:07:08;27.10;;;17.80;;
23418;SDS011;11882;42.522;27.458;2022-12-16T14:09:52;30.47;;;20.60;;
23418;SDS011;11882;42.522;27.458;2022-12-16T14:12:46;39.43;;;23.67;;
23418;SDS011;11882;42.522;27.458;2022-12-16T14:15:32;36.33;;;20.07;;
23418;SDS011;11882;42.522;27.458;2022-12-16T14:18:23;72.73;;;34.40;;
23418;SDS011;11882;42.522;27.458;2022-12-16T14:21:08;41.47;;;21.90;;
23418;SDS011;11882;42.522;27.458;2022-12-16T14:23:57;31.20;;;18.97;;
23418;SDS011;11882;42.522;27.458;2022-12-16T14:26:45;33.50;;;19.47;;
23418;SDS011;11882;42.522;27.458;2022-12-16T14:29:31;35.37;;;19.03;;
23418;SDS011;11882;42.522;27.458;2022-12-16T14:32:19;35.50;;;20.27;;
23418;SDS011;11882;42.522;27.458;2022-12-16T14:35:03;31.07;;;18.97;;
23418;SDS011;11882;42.522;27.458;2022-12-16T14:37:50;33.60;;;19.27;;
23418;SDS011;11882;42.522;27.458;2022-12-16T14:40:34;32.40;;;19.83;;
23418;SDS011;11882;42.522;27.458;2022-12-16T14:43:24;35.37;;;19.80;;
23418;SDS011;11882;42.522;27.458;2022-12-16T14:46:21;36.87;;;19.37;;
23418;SDS011;11882;42.522;27.458;2022-12-16T14:49:12;32.30;;;19.30;;
23418;SDS011;11882;42.522;27.458;2022-12-16T14:51:58;36.93;;;21.07;;
23418;SDS011;11882;42.522;27.458;2022-12-16T14:54:42;37.63;;;20.57;;
23418;SDS011;11882;42.522;27.458;2022-12-16T14:57:27;49.90;;;25.93;;
23418;SDS011;11882;42.522;27.458;2022-12-16T15:00:12;33.97;;;19.67;;
23418;SDS011;11882;42.522;27.458;2022-12-16T15:02:59;33.20;;;18.83;;
23418;SDS011;11882;42.522;27.458;2022-12-16T15:05:44;36.50;;;20.67;;
23418;SDS011;11882;42.522;27.458;2022-12-16T15:08:29;40.70;;;20.97;;
23418;SDS011;11882;42.522;27.458;2022-12-16T15:11:16;34.30;;;20.17;;
23418;SDS011;11882;42.522;27.458;2022-12-16T15:14:01;31.47;;;20.17;;
23418;SDS011;11882;42.522;27.458;2022-12-16T15:16:46;32.27;;;19.10;;
23418;SDS011;11882;42.522;27.458;2022-12-16T15:19:35;35.63;;;21.03;;
23418;SDS011;11882;42.522;27.458;2022-12-16T15:22:21;34.17;;;19.77;;
23418;SDS011;11882;42.522;27.458;2022-12-16T15:25:06;34.07;;;19.73;;
23418;SDS011;11882;42.522;27.458;2022-12-16T15:27:53;36.13;;;20.23;;
23418;SDS011;11882;42.522;27.458;2022-12-16T15:30:38;35.67;;;20.83;;
23418;SDS011;11882;42.522;27.458;2022-12-16T15:33:25;34.60;;;21.33;;
23418;SDS011;11882;42.522;27.458;2022-12-16T15:36:22;38.07;;;20.47;;
23418;SDS011;11882;42.522;27.458;2022-12-16T15:39:10;34.93;;;18.73;;
23418;SDS011;11882;42.522;27.458;2022-12-16T15:41:54;39.13;;;20.07;;